createdAt,value
2023-05-22T00:00:56.338Z,56.23
2023-05-22T00:01:58.629Z,56.48
2023-05-22T00:03:00.868Z,55.99
2023-05-22T00:04:03.836Z,56.12
2023-05-22T00:05:06.965Z,55.79
2023-05-22T00:06:10.267Z,56.08
2023-05-22T00:07:12.295Z,55.06
2023-05-22T00:08:14.516Z,54.46
2023-05-22T00:09:16.774Z,55.21
2023-05-22T00:10:19.111Z,55.54
2023-05-22T00:11:21.316Z,55.50
2023-05-22T00:12:23.453Z,55.20
2023-05-22T00:13:25.536Z,55.10
2023-05-22T00:14:27.802Z,54.88
2023-05-22T00:15:29.818Z,55.20
2023-05-22T00:16:32.341Z,54.77
2023-05-22T00:17:34.617Z,54.93
2023-05-22T00:18:36.807Z,55.12
2023-05-22T00:19:38.925Z,52.93
2023-05-22T00:20:42.403Z,54.68
2023-05-22T00:21:44.779Z,52.45
2023-05-22T00:22:48.964Z,54.27
2023-05-22T00:23:51.080Z,51.14
2023-05-22T00:24:53.203Z,52.65
2023-05-22T00:25:55.374Z,54.45
2023-05-22T00:26:57.870Z,52.17
2023-05-22T00:27:59.928Z,54.09
2023-05-22T00:29:02.100Z,54.33
2023-05-22T00:30:04.446Z,52.91
2023-05-22T00:31:09.436Z,53.16
2023-05-22T00:32:11.777Z,53.70
2023-05-22T00:33:13.908Z,53.92
2023-05-22T00:34:15.961Z,54.04
2023-05-22T00:35:18.136Z,54.85
2023-05-22T00:36:20.261Z,54.67
2023-05-22T00:37:22.502Z,55.40
2023-05-22T00:38:33.379Z,55.30
2023-05-22T00:39:35.940Z,55.42
2023-05-22T00:40:38.315Z,55.52
2023-05-22T00:41:40.745Z,55.34
2023-05-22T00:42:46.091Z,56.06
2023-05-22T00:43:48.283Z,55.72
2023-05-22T00:44:50.372Z,56.48
2023-05-22T00:45:54.280Z,56.40
2023-05-22T00:47:35.103Z,56.44
2023-05-22T00:48:37.764Z,56.57
2023-05-22T00:49:40.057Z,57.00
2023-05-22T00:50:43.979Z,57.48
2023-05-22T00:51:45.762Z,56.14
2023-05-22T00:52:47.922Z,57.08
2023-05-22T00:53:51.402Z,57.28
2023-05-22T00:54:54.325Z,57.27
2023-05-22T00:55:57.581Z,57.93
2023-05-22T00:57:01.616Z,57.51
2023-05-22T00:58:09.244Z,57.91
2023-05-22T00:59:11.614Z,58.09
2023-05-22T01:00:15.386Z,58.55
2023-05-22T01:01:18.042Z,58.70
2023-05-22T01:02:20.765Z,59.07
2023-05-22T01:03:27.162Z,58.70
2023-05-22T01:04:32.920Z,59.00
2023-05-22T01:05:34.968Z,59.14
2023-05-22T01:06:37.551Z,59.15
2023-05-22T01:07:39.690Z,59.21
2023-05-22T01:08:43.184Z,59.64
2023-05-22T01:09:45.224Z,59.56
2023-05-22T01:10:53.075Z,59.94
2023-05-22T01:12:07.508Z,59.57
2023-05-22T01:13:27.470Z,59.69
2023-05-22T01:14:53.591Z,59.65
2023-05-22T01:16:13.415Z,59.68
2023-05-22T01:17:16.522Z,59.87
2023-05-22T01:18:32.717Z,59.55
2023-05-22T01:19:54.241Z,59.21
2023-05-22T01:21:22.355Z,59.14
2023-05-22T01:22:32.383Z,59.54
2023-05-22T01:24:06.723Z,59.07
2023-05-22T01:25:33.432Z,59.56
2023-05-22T01:26:41.684Z,59.73
2023-05-22T01:28:01.838Z,59.99
2023-05-22T01:29:56.206Z,59.06
2023-05-22T01:31:11.600Z,59.57
2023-05-22T01:32:20.182Z,59.83
2023-05-22T01:33:26.430Z,59.78
2023-05-22T01:34:31.932Z,59.64
2023-05-22T01:35:37.351Z,59.49
2023-05-22T01:36:41.963Z,59.64
2023-05-22T01:37:44.784Z,59.62
2023-05-22T01:38:47.628Z,59.83
2023-05-22T01:39:51.796Z,59.94
2023-05-22T01:40:55.419Z,59.80
2023-05-22T01:41:58.109Z,59.52
2023-05-22T01:43:01.146Z,59.52
2023-05-22T01:44:03.509Z,59.57
2023-05-22T01:45:06.385Z,59.23
2023-05-22T01:46:08.885Z,58.75
2023-05-22T01:47:11.004Z,58.31
2023-05-22T01:48:13.030Z,56.27
2023-05-22T01:49:16.403Z,57.44
2023-05-22T01:50:18.893Z,56.72
2023-05-22T01:51:39.134Z,56.54
2023-05-22T01:53:06.808Z,56.03
2023-05-22T01:54:24.451Z,56.11
2023-05-22T01:55:40.529Z,56.37
2023-05-22T01:56:55.207Z,56.39
2023-05-22T01:58:26.746Z,56.33
2023-05-22T01:59:49.840Z,56.50
2023-05-22T02:00:54.893Z,56.73
2023-05-22T02:02:01.133Z,56.88
2023-05-22T02:03:09.131Z,56.99
2023-05-22T02:04:13.802Z,55.20
2023-05-22T02:05:20.523Z,55.13
2023-05-22T02:06:24.255Z,55.07
2023-05-22T02:07:27.887Z,55.19
2023-05-22T02:08:31.359Z,55.76
2023-05-22T02:09:35.158Z,54.50
2023-05-22T02:10:38.292Z,54.72
2023-05-22T02:11:41.920Z,55.19
2023-05-22T02:12:45.074Z,55.00
2023-05-22T02:13:47.535Z,54.00
2023-05-22T02:14:50.560Z,53.87
2023-05-22T02:15:53.148Z,53.45
2023-05-22T02:16:56.962Z,52.79
2023-05-22T02:18:00.529Z,51.36
2023-05-22T02:19:08.812Z,50.09
2023-05-22T02:20:15.525Z,48.54
2023-05-22T02:21:18.111Z,48.06
2023-05-22T02:22:20.233Z,47.25
2023-05-22T02:23:22.628Z,45.88
2023-05-22T02:24:24.863Z,45.28
2023-05-22T02:25:27.106Z,44.36
2023-05-22T02:26:29.340Z,42.35
2023-05-22T02:27:31.625Z,41.72
2023-05-22T02:28:33.625Z,41.26
2023-05-22T02:29:36.012Z,41.38
2023-05-22T02:30:38.072Z,40.65
2023-05-22T02:31:40.687Z,39.90
2023-05-22T02:32:43.270Z,40.21
2023-05-22T02:33:45.488Z,38.33
2023-05-22T02:34:48.494Z,38.92
2023-05-22T02:35:50.682Z,38.12
2023-05-22T02:36:52.783Z,37.54
2023-05-22T02:37:54.973Z,36.52
2023-05-22T02:38:56.887Z,36.46
2023-05-22T02:39:59.394Z,36.57
2023-05-22T02:41:01.525Z,36.23
2023-05-22T02:42:03.934Z,35.98
2023-05-22T02:43:06.308Z,36.19
2023-05-22T02:44:08.445Z,36.38
2023-05-22T02:45:10.708Z,36.13
2023-05-22T02:46:12.874Z,36.44
2023-05-22T02:47:15.024Z,36.35
2023-05-22T02:48:17.149Z,35.69
2023-05-22T02:49:19.324Z,36.26
2023-05-22T02:50:21.475Z,35.91
2023-05-22T02:51:23.547Z,35.95
2023-05-22T02:52:25.688Z,35.25
2023-05-22T02:53:28.322Z,35.21
2023-05-22T02:54:30.537Z,35.38
2023-05-22T02:55:32.494Z,35.34
2023-05-22T02:56:34.654Z,35.48
2023-05-22T02:57:36.634Z,35.25
2023-05-22T02:58:41.980Z,35.38
2023-05-22T02:59:44.539Z,34.52
2023-05-22T03:00:46.662Z,35.08
2023-05-22T03:01:48.788Z,34.53
2023-05-22T03:02:51.110Z,34.78
2023-05-22T03:03:55.137Z,35.05
2023-05-22T03:04:59.219Z,34.41
2023-05-22T03:06:02.004Z,34.52
2023-05-22T03:07:04.473Z,34.08
2023-05-22T03:08:06.907Z,33.97
2023-05-22T03:09:09.153Z,33.28
2023-05-22T03:10:11.637Z,32.42
2023-05-22T03:11:13.710Z,31.79
2023-05-22T03:12:15.714Z,30.71
2023-05-22T03:13:17.798Z,31.47
2023-05-22T03:14:20.043Z,31.38
2023-05-22T03:15:22.175Z,31.00
2023-05-22T03:16:25.179Z,30.49
2023-05-22T03:17:27.346Z,29.98
2023-05-22T03:18:29.390Z,29.53
2023-05-22T03:19:31.747Z,30.29
2023-05-22T03:20:34.202Z,29.90
2023-05-22T03:21:36.947Z,29.66
2023-05-22T03:22:39.077Z,29.23
2023-05-22T03:23:41.290Z,28.73
2023-05-22T03:24:43.229Z,29.76
2023-05-22T03:25:45.300Z,29.86
2023-05-22T03:26:47.492Z,28.90
2023-05-22T03:27:49.604Z,27.73
2023-05-22T03:28:51.711Z,29.66
2023-05-22T03:29:54.010Z,29.60
2023-05-22T03:30:55.969Z,29.65
2023-05-22T03:31:58.413Z,29.91
2023-05-22T03:33:00.673Z,30.40
2023-05-22T03:34:03.280Z,31.15
2023-05-22T03:35:06.342Z,31.26
2023-05-22T03:36:09.996Z,31.12
2023-05-22T03:37:11.926Z,30.54
2023-05-22T03:38:14.014Z,30.97
2023-05-22T03:39:16.270Z,31.09
2023-05-22T03:40:18.336Z,30.59
2023-05-22T03:41:21.297Z,30.10
2023-05-22T03:42:23.349Z,30.25
2023-05-22T03:43:25.448Z,30.24
2023-05-22T03:44:27.848Z,30.29
2023-05-22T03:45:30.225Z,30.52
2023-05-22T03:46:32.368Z,30.05
2023-05-22T03:47:34.580Z,29.38
2023-05-22T03:48:36.905Z,29.63
2023-05-22T03:49:39.140Z,29.40
2023-05-22T03:50:41.503Z,28.80
2023-05-22T03:51:43.963Z,28.97
2023-05-22T03:52:46.495Z,28.41
2023-05-22T03:53:48.740Z,28.26
2023-05-22T03:54:50.750Z,27.87
2023-05-22T03:55:53.448Z,27.65
2023-05-22T03:56:56.353Z,27.34
2023-05-22T03:57:58.571Z,26.63
2023-05-22T03:59:00.828Z,26.83
2023-05-22T04:00:10.097Z,26.97
2023-05-22T04:01:13.937Z,26.91
2023-05-22T04:02:16.979Z,26.45
2023-05-22T04:03:19.931Z,26.32
2023-05-22T04:04:22.285Z,26.30
2023-05-22T04:05:24.797Z,25.88
2023-05-22T04:06:27.213Z,26.11
2023-05-22T04:07:29.238Z,26.29
2023-05-22T04:08:31.608Z,26.23
2023-05-22T04:09:35.703Z,25.72
2023-05-22T04:10:39.102Z,26.09
2023-05-22T04:11:42.497Z,26.35
2023-05-22T04:12:44.844Z,26.18
2023-05-22T04:13:50.118Z,26.29
2023-05-22T04:14:52.216Z,26.48
2023-05-22T04:15:54.334Z,26.17
2023-05-22T04:16:56.759Z,26.32
2023-05-22T04:17:58.766Z,25.80
2023-05-22T04:19:04.665Z,26.59
2023-05-22T04:20:07.892Z,26.26
2023-05-22T04:21:10.442Z,26.41
2023-05-22T04:22:12.499Z,26.14
2023-05-22T04:23:14.855Z,25.94
2023-05-22T04:24:16.924Z,25.59
2023-05-22T04:25:18.993Z,25.61
2023-05-22T04:26:21.078Z,25.89
2023-05-22T04:27:23.191Z,25.29
2023-05-22T04:28:26.866Z,25.11
2023-05-22T04:29:29.619Z,25.20
2023-05-22T04:30:37.825Z,25.14
2023-05-22T04:31:40.362Z,24.76
2023-05-22T04:32:43.686Z,24.62
2023-05-22T04:33:48.604Z,24.63
2023-05-22T04:34:53.621Z,24.38
2023-05-22T04:35:55.681Z,24.29
2023-05-22T04:36:58.424Z,24.01
2023-05-22T04:38:03.864Z,24.10
2023-05-22T04:39:05.845Z,24.73
2023-05-22T04:40:10.271Z,24.86
2023-05-22T04:41:13.687Z,24.41
2023-05-22T04:42:16.219Z,24.46
2023-05-22T04:43:18.915Z,24.78
2023-05-22T04:44:23.155Z,24.68
2023-05-22T04:45:25.513Z,24.63
2023-05-22T04:46:28.929Z,24.33
2023-05-22T04:47:32.101Z,24.42
2023-05-22T04:48:37.106Z,24.45
2023-05-22T04:49:39.464Z,23.90
2023-05-22T04:50:41.855Z,23.96
2023-05-22T04:51:44.067Z,24.02
2023-05-22T04:52:47.306Z,24.33
2023-05-22T04:53:49.998Z,24.30
2023-05-22T04:54:52.696Z,24.61
2023-05-22T04:55:54.999Z,24.28
2023-05-22T04:56:57.243Z,24.12
2023-05-22T04:57:59.939Z,24.48
2023-05-22T04:59:02.146Z,24.52
2023-05-22T05:00:05.564Z,24.53
2023-05-22T05:01:09.686Z,24.36
2023-05-22T05:02:12.095Z,24.63
2023-05-22T05:03:14.135Z,23.57
2023-05-22T05:04:17.882Z,23.55
2023-05-22T05:05:20.063Z,23.86
2023-05-22T05:06:22.199Z,23.92
2023-05-22T05:07:25.378Z,23.29
2023-05-22T05:08:27.485Z,22.88
2023-05-22T05:09:29.851Z,22.96
2023-05-22T05:10:31.918Z,22.91
2023-05-22T05:11:34.084Z,22.86
2023-05-22T05:12:36.277Z,22.57
2023-05-22T05:13:38.501Z,22.76
2023-05-22T05:14:40.588Z,22.09
2023-05-22T05:15:42.616Z,22.19
2023-05-22T05:16:44.732Z,21.72
2023-05-22T05:17:47.044Z,22.01
2023-05-22T05:18:49.159Z,22.18
2023-05-22T05:19:51.334Z,22.38
2023-05-22T05:20:53.941Z,22.30
2023-05-22T05:21:55.990Z,22.72
2023-05-22T05:22:58.192Z,22.60
2023-05-22T05:24:00.601Z,22.07
2023-05-22T05:25:04.216Z,21.73
2023-05-22T05:26:06.063Z,22.47
2023-05-22T05:27:08.068Z,22.02
2023-05-22T05:28:13.211Z,22.63
2023-05-22T05:29:15.258Z,22.28
2023-05-22T05:30:20.561Z,21.69
2023-05-22T05:31:23.079Z,21.70
2023-05-22T05:32:25.364Z,21.66
2023-05-22T05:33:28.029Z,22.52
2023-05-22T05:34:30.288Z,22.48
2023-05-22T05:35:32.752Z,22.30
2023-05-22T05:36:35.010Z,21.93
2023-05-22T05:37:37.078Z,22.01
2023-05-22T05:38:39.268Z,22.14
2023-05-22T05:39:41.408Z,22.00
2023-05-22T05:40:45.194Z,22.15
2023-05-22T05:41:47.214Z,22.26
2023-05-22T05:42:49.457Z,22.03
2023-05-22T05:43:57.552Z,21.78
2023-05-22T05:44:59.756Z,21.29
2023-05-22T05:46:02.000Z,21.67
2023-05-22T05:47:04.364Z,21.25
2023-05-22T05:48:06.968Z,21.99
2023-05-22T05:49:12.355Z,22.07
2023-05-22T05:50:15.945Z,22.23
2023-05-22T05:51:18.145Z,22.28
2023-05-22T05:52:20.244Z,22.39
2023-05-22T05:53:22.920Z,21.98
2023-05-22T05:54:26.585Z,22.00
2023-05-22T05:55:28.917Z,22.52
2023-05-22T05:56:31.192Z,22.04
2023-05-22T05:57:33.423Z,21.85
2023-05-22T05:58:35.410Z,21.95
2023-05-22T05:59:38.130Z,21.51
2023-05-22T06:00:42.529Z,21.08
2023-05-22T06:01:49.275Z,21.44
2023-05-22T06:02:51.451Z,22.05
2023-05-22T06:03:53.838Z,22.00
2023-05-22T06:04:56.244Z,21.58
2023-05-22T06:05:59.507Z,22.33
2023-05-22T06:07:02.053Z,21.97
2023-05-22T06:08:06.340Z,22.00
2023-05-22T06:09:10.373Z,21.85
2023-05-22T06:10:13.185Z,21.74
2023-05-22T06:11:15.216Z,21.69
2023-05-22T06:12:17.309Z,21.33
2023-05-22T06:13:19.472Z,21.65
2023-05-22T06:14:21.613Z,21.38
2023-05-22T06:15:23.689Z,22.19
2023-05-22T06:16:26.600Z,21.63
2023-05-22T06:17:28.644Z,21.49
2023-05-22T06:18:31.052Z,21.13
2023-05-22T06:19:33.098Z,21.16
2023-05-22T06:20:35.461Z,21.44
2023-05-22T06:21:37.509Z,20.98
2023-05-22T06:22:39.644Z,21.13
2023-05-22T06:23:41.812Z,21.20
2023-05-22T06:24:43.893Z,20.92
2023-05-22T06:25:46.050Z,21.20
2023-05-22T06:26:48.140Z,21.75
2023-05-22T06:27:50.192Z,21.82
2023-05-22T06:28:52.350Z,21.77
2023-05-22T06:29:56.342Z,21.28
2023-05-22T06:30:58.571Z,21.23
2023-05-22T06:32:00.986Z,20.74
2023-05-22T06:33:04.383Z,21.23
2023-05-22T06:34:06.703Z,21.49
2023-05-22T06:35:10.423Z,21.59
2023-05-22T06:36:12.482Z,21.88
2023-05-22T06:37:14.577Z,21.48
2023-05-22T06:38:16.728Z,21.07
2023-05-22T06:39:19.755Z,21.46
2023-05-22T06:40:22.265Z,21.41
2023-05-22T06:41:24.301Z,21.77
2023-05-22T06:42:26.330Z,21.97
2023-05-22T06:43:28.404Z,21.66
2023-05-22T06:44:30.643Z,22.37
2023-05-22T06:45:32.773Z,21.99
2023-05-22T06:46:35.040Z,21.85
2023-05-22T06:47:37.247Z,22.00
2023-05-22T06:48:39.198Z,22.07
2023-05-22T06:49:41.503Z,21.86
2023-05-22T06:50:43.564Z,22.23
2023-05-22T06:51:46.796Z,21.77
2023-05-22T06:52:49.457Z,21.72
2023-05-22T06:53:51.718Z,22.15
2023-05-22T06:54:54.239Z,22.04
2023-05-22T06:55:57.034Z,22.15
2023-05-22T06:56:59.768Z,21.89
2023-05-22T06:58:02.204Z,22.62
2023-05-22T06:59:06.238Z,22.12
2023-05-22T07:00:12.102Z,22.42
2023-05-22T07:01:14.381Z,22.73
2023-05-22T07:02:16.649Z,22.38
2023-05-22T07:03:18.832Z,22.45
2023-05-22T07:04:20.988Z,22.11
2023-05-22T07:05:23.036Z,22.26
2023-05-22T07:06:25.122Z,21.25
2023-05-22T07:07:27.175Z,21.38
2023-05-22T07:08:30.551Z,19.83
2023-05-22T07:09:32.803Z,20.37
2023-05-22T07:10:35.018Z,19.09
2023-05-22T07:11:38.081Z,19.42
2023-05-22T07:12:42.445Z,19.35
2023-05-22T07:13:44.578Z,19.73
2023-05-22T07:14:46.710Z,20.83
2023-05-22T07:15:48.741Z,20.66
2023-05-22T07:16:51.486Z,20.40
2023-05-22T07:17:53.761Z,20.29
2023-05-22T07:18:55.871Z,19.86
2023-05-22T07:19:58.438Z,20.27
2023-05-22T07:21:00.920Z,20.52
2023-05-22T07:22:03.029Z,19.85
2023-05-22T07:23:05.025Z,20.27
2023-05-22T07:24:10.068Z,20.16
2023-05-22T07:25:12.245Z,20.17
2023-05-22T07:26:14.343Z,20.46
2023-05-22T07:27:16.489Z,19.93
2023-05-22T07:28:18.722Z,20.47
2023-05-22T07:29:22.457Z,19.57
2023-05-22T07:30:25.312Z,19.59
2023-05-22T07:31:27.418Z,18.87
2023-05-22T07:32:29.702Z,19.22
2023-05-22T07:33:31.748Z,19.55
2023-05-22T07:34:34.559Z,19.76
2023-05-22T07:35:36.549Z,19.54
2023-05-22T07:36:38.895Z,19.60
2023-05-22T07:37:41.523Z,19.87
2023-05-22T07:38:43.754Z,20.96
2023-05-22T07:39:47.000Z,20.85
2023-05-22T07:40:49.152Z,20.44
2023-05-22T07:41:51.633Z,20.54
2023-05-22T07:42:54.462Z,19.84
2023-05-22T07:43:56.801Z,19.74
2023-05-22T07:44:58.858Z,19.79
2023-05-22T07:46:00.945Z,19.28
2023-05-22T07:47:03.641Z,19.27
2023-05-22T07:48:06.066Z,18.52
2023-05-22T07:49:08.395Z,18.05
2023-05-22T07:50:10.546Z,18.42
2023-05-22T07:51:13.857Z,18.58
2023-05-22T07:52:16.563Z,18.75
2023-05-22T07:53:18.854Z,18.34
2023-05-22T07:54:20.819Z,19.05
2023-05-22T07:55:23.156Z,18.50
2023-05-22T07:56:25.967Z,18.44
2023-05-22T07:57:29.979Z,18.38
2023-05-22T07:58:34.155Z,18.92
2023-05-22T07:59:37.888Z,18.75
2023-05-22T08:00:39.882Z,18.49
2023-05-22T08:01:42.310Z,18.16
2023-05-22T08:02:45.142Z,18.42
2023-05-22T08:03:47.469Z,17.57
2023-05-22T08:04:50.689Z,18.47
2023-05-22T08:05:55.595Z,17.69
2023-05-22T08:06:57.572Z,16.86
2023-05-22T08:07:59.724Z,16.89
2023-05-22T08:09:02.610Z,16.72
2023-05-22T08:10:08.533Z,16.78
2023-05-22T08:11:10.730Z,17.54
2023-05-22T08:12:13.252Z,17.90
2023-05-22T08:13:16.953Z,18.18
2023-05-22T08:14:21.765Z,18.16
2023-05-22T08:15:23.829Z,18.37
2023-05-22T08:16:26.198Z,18.84
2023-05-22T08:17:28.273Z,18.91
2023-05-22T08:18:30.597Z,19.78
2023-05-22T08:19:33.462Z,20.22
2023-05-22T08:20:35.722Z,20.31
2023-05-22T08:21:37.905Z,20.42
2023-05-22T08:22:40.629Z,19.46
2023-05-22T08:23:42.632Z,19.55
2023-05-22T08:24:44.900Z,19.77
2023-05-22T08:25:46.897Z,19.50
2023-05-22T08:26:49.070Z,19.00
2023-05-22T08:27:51.105Z,19.48
2023-05-22T08:28:53.156Z,19.37
2023-05-22T08:29:55.254Z,19.69
2023-05-22T08:30:57.358Z,19.52
2023-05-22T08:31:59.340Z,19.36
2023-05-22T08:33:01.729Z,18.55
2023-05-22T08:34:04.910Z,18.75
2023-05-22T08:35:07.529Z,18.20
2023-05-22T08:36:09.537Z,17.42
2023-05-22T08:37:12.797Z,17.83
2023-05-22T08:38:15.145Z,17.91
2023-05-22T08:39:20.239Z,18.11
2023-05-22T08:40:22.823Z,17.55
2023-05-22T08:41:25.032Z,18.16
2023-05-22T08:42:27.226Z,18.29
2023-05-22T08:43:29.747Z,18.39
2023-05-22T08:44:31.759Z,17.80
2023-05-22T08:45:34.764Z,18.10
2023-05-22T08:46:41.791Z,18.26
2023-05-22T08:47:44.967Z,18.54
2023-05-22T08:48:48.141Z,19.04
2023-05-22T08:49:52.167Z,19.07
2023-05-22T08:51:01.409Z,19.36
2023-05-22T08:52:11.626Z,18.97
2023-05-22T08:53:15.842Z,19.76
2023-05-22T08:54:21.945Z,18.78
2023-05-22T08:55:24.108Z,19.47
2023-05-22T08:56:28.668Z,19.00
2023-05-22T08:57:33.369Z,19.06
2023-05-22T08:58:37.687Z,18.85
2023-05-22T08:59:41.492Z,18.96
2023-05-22T09:00:44.562Z,19.33
2023-05-22T09:01:47.515Z,19.02
2023-05-22T09:02:50.103Z,18.96
2023-05-22T09:03:52.410Z,19.19
2023-05-22T09:04:54.467Z,19.33
2023-05-22T09:05:56.412Z,18.93
2023-05-22T09:07:00.202Z,18.71
2023-05-22T09:08:16.066Z,19.52
2023-05-22T09:09:21.626Z,18.42
2023-05-22T09:10:23.883Z,18.74
2023-05-22T09:11:26.461Z,18.43
2023-05-22T09:12:28.522Z,18.48
2023-05-22T09:13:31.997Z,18.20
2023-05-22T09:14:42.171Z,18.75
2023-05-22T09:15:44.577Z,18.61
2023-05-22T09:16:52.018Z,18.74
2023-05-22T09:17:54.088Z,18.63
2023-05-22T09:18:57.636Z,18.30
2023-05-22T09:20:01.326Z,18.33
2023-05-22T09:21:08.965Z,17.69
2023-05-22T09:22:17.728Z,17.87
2023-05-22T09:23:20.518Z,17.73
2023-05-22T09:24:22.755Z,17.75
2023-05-22T09:25:26.617Z,17.86
2023-05-22T09:26:29.689Z,18.37
2023-05-22T09:27:32.162Z,18.61
2023-05-22T09:28:36.274Z,18.24
2023-05-22T09:29:51.688Z,18.12
2023-05-22T09:30:54.897Z,18.12
2023-05-22T09:31:59.324Z,18.29
2023-05-22T09:33:01.561Z,17.78
2023-05-22T09:34:04.974Z,17.41
2023-05-22T09:35:26.130Z,17.24
2023-05-22T09:36:33.450Z,16.90
2023-05-22T09:37:36.663Z,17.33
2023-05-22T09:38:39.603Z,16.71
2023-05-22T09:39:44.025Z,17.72
2023-05-22T09:41:04.607Z,18.32
2023-05-22T09:42:09.495Z,18.00
2023-05-22T09:43:12.756Z,17.94
2023-05-22T09:44:16.536Z,17.93
2023-05-22T09:45:26.738Z,17.61
2023-05-22T09:46:48.172Z,17.68
2023-05-22T09:47:51.242Z,17.81
2023-05-22T09:48:53.904Z,18.09
2023-05-22T09:50:15.731Z,18.15
2023-05-22T09:51:22.282Z,17.49
2023-05-22T09:52:24.764Z,17.61
2023-05-22T09:53:31.222Z,16.97
2023-05-22T09:54:34.985Z,16.89
2023-05-22T09:55:37.329Z,17.27
2023-05-22T09:56:42.003Z,16.96
2023-05-22T09:57:45.221Z,17.11
2023-05-22T09:58:48.055Z,17.24
2023-05-22T09:59:55.148Z,17.63
2023-05-22T10:01:17.188Z,17.44
2023-05-22T10:02:38.390Z,17.51
2023-05-22T10:03:43.428Z,16.77
2023-05-22T10:05:26.034Z,17.15
2023-05-22T10:06:46.782Z,17.60
2023-05-22T10:07:50.407Z,17.26
2023-05-22T10:09:02.760Z,18.13
2023-05-22T10:10:11.615Z,17.88
2023-05-22T10:11:14.697Z,17.16
2023-05-22T10:12:21.328Z,17.66
2023-05-22T10:13:25.559Z,18.06
2023-05-22T10:14:29.036Z,17.44
2023-05-22T10:15:32.990Z,17.89
2023-05-22T10:16:39.895Z,17.87
2023-05-22T10:17:42.233Z,17.82
2023-05-22T10:19:21.529Z,17.42
2023-05-22T10:20:25.566Z,16.79
2023-05-22T10:21:30.169Z,17.15
2023-05-22T10:22:51.073Z,17.31
2023-05-22T10:24:13.527Z,17.58
2023-05-22T10:25:16.000Z,17.31
2023-05-22T10:26:19.242Z,17.36
2023-05-22T10:27:21.328Z,17.46
2023-05-22T10:28:35.783Z,17.65
2023-05-22T10:30:03.671Z,17.22
2023-05-22T10:31:14.952Z,17.05
2023-05-22T10:32:35.962Z,17.70
2023-05-22T10:33:43.609Z,17.54
2023-05-22T10:35:20.977Z,17.21
2023-05-22T10:36:31.851Z,16.55
2023-05-22T10:37:36.621Z,18.14
2023-05-22T10:38:57.380Z,16.79
2023-05-22T10:40:08.386Z,17.09
2023-05-22T10:41:11.342Z,17.03
2023-05-22T10:42:33.026Z,16.79
2023-05-22T10:43:41.577Z,16.87
2023-05-22T10:44:43.849Z,17.04
2023-05-22T10:45:47.364Z,17.71
2023-05-22T10:46:50.474Z,17.58
2023-05-22T10:48:03.727Z,17.39
2023-05-22T10:49:05.974Z,17.18
2023-05-22T10:50:30.079Z,17.20
2023-05-22T10:51:34.450Z,16.82
2023-05-22T10:52:37.172Z,16.33
2023-05-22T10:53:41.079Z,16.75
2023-05-22T10:54:44.749Z,16.57
2023-05-22T10:56:10.288Z,16.60
2023-05-22T10:57:55.504Z,16.47
2023-05-22T11:01:17.464Z,16.94
2023-05-22T11:02:29.607Z,16.90
2023-05-22T11:04:00.264Z,16.99
2023-05-22T11:05:31.397Z,16.87
2023-05-22T11:06:45.767Z,16.53
2023-05-22T11:08:29.451Z,16.17
2023-05-22T11:09:47.807Z,15.82
2023-05-22T11:10:54.663Z,15.88
2023-05-22T11:12:28.951Z,16.60
2023-05-22T11:13:31.544Z,16.12
2023-05-22T11:14:33.827Z,16.34
2023-05-22T11:15:54.184Z,15.70
2023-05-22T11:17:00.489Z,16.28
2023-05-22T11:18:22.220Z,16.17
2023-05-22T11:19:24.476Z,16.07
2023-05-22T11:20:26.812Z,15.35
2023-05-22T11:21:48.237Z,15.90
2023-05-22T11:22:59.504Z,15.42
2023-05-22T11:24:02.009Z,15.36
2023-05-22T11:25:07.433Z,15.44
2023-05-22T11:26:37.932Z,15.63
2023-05-22T11:27:41.512Z,15.51
2023-05-22T11:29:02.282Z,15.93
2023-05-22T11:30:04.908Z,16.31
2023-05-22T11:31:09.097Z,16.35
2023-05-22T11:32:15.456Z,16.93
2023-05-22T11:33:18.640Z,16.71
2023-05-22T11:34:21.461Z,16.17
2023-05-22T11:35:23.757Z,16.67
2023-05-22T11:36:28.656Z,15.80
2023-05-22T11:37:33.942Z,15.79
2023-05-22T11:38:36.239Z,16.24
2023-05-22T11:39:38.488Z,15.68
2023-05-22T11:40:40.690Z,16.02
2023-05-22T11:41:43.286Z,16.29
2023-05-22T11:42:45.427Z,15.77
2023-05-22T11:43:47.556Z,15.91
2023-05-22T11:44:49.706Z,16.20
2023-05-22T11:45:51.837Z,16.53
2023-05-22T11:46:54.608Z,15.99
2023-05-22T11:47:57.329Z,16.29
2023-05-22T11:48:59.398Z,16.59
2023-05-22T11:50:02.191Z,15.97
2023-05-22T11:51:04.708Z,16.39
2023-05-22T11:52:06.992Z,16.66
2023-05-22T11:53:09.084Z,15.91
2023-05-22T11:54:11.412Z,15.98
2023-05-22T11:55:13.430Z,16.34
2023-05-22T11:56:15.772Z,16.34
2023-05-22T11:57:17.700Z,16.27
2023-05-22T11:58:28.319Z,15.85
2023-05-22T11:59:30.254Z,16.25
2023-05-22T12:00:32.750Z,16.06
2023-05-22T12:01:36.529Z,16.27
2023-05-22T12:02:39.415Z,16.22
2023-05-22T12:03:42.243Z,16.23
2023-05-22T12:04:44.542Z,16.49
2023-05-22T12:05:47.338Z,16.41
2023-05-22T12:06:49.755Z,16.67
2023-05-22T12:07:52.059Z,16.71
2023-05-22T12:08:54.787Z,16.19
2023-05-22T12:09:57.942Z,16.77
2023-05-22T12:11:00.333Z,16.94
2023-05-22T12:12:02.427Z,16.41
2023-05-22T12:13:04.686Z,16.16
2023-05-22T12:14:06.690Z,16.91
2023-05-22T12:15:09.655Z,16.17
2023-05-22T12:16:25.315Z,16.51
2023-05-22T12:17:29.120Z,16.32
2023-05-22T12:18:39.621Z,16.36
2023-05-22T12:19:42.717Z,16.20
2023-05-22T12:20:45.012Z,16.07
2023-05-22T12:21:49.424Z,15.67
2023-05-22T12:22:51.525Z,16.46
2023-05-22T12:23:55.290Z,16.60
2023-05-22T12:24:57.434Z,16.40
2023-05-22T12:26:01.066Z,16.42
2023-05-22T12:27:03.231Z,16.21
2023-05-22T12:28:08.488Z,16.20
2023-05-22T12:29:10.631Z,16.21
2023-05-22T12:30:14.232Z,16.02
2023-05-22T12:31:25.605Z,16.42
2023-05-22T12:32:30.501Z,16.71
2023-05-22T12:33:32.692Z,16.71
2023-05-22T12:34:36.165Z,16.90
2023-05-22T12:35:39.058Z,16.76
2023-05-22T12:36:43.479Z,17.01
2023-05-22T12:37:52.538Z,16.96
2023-05-22T12:38:58.457Z,16.63
2023-05-22T12:40:04.253Z,17.09
2023-05-22T12:41:06.638Z,16.77
2023-05-22T12:42:08.846Z,17.47
2023-05-22T12:43:10.876Z,17.39
2023-05-22T12:44:15.142Z,17.68
2023-05-22T12:45:18.270Z,17.58
2023-05-22T12:46:21.274Z,17.67
2023-05-22T12:47:24.714Z,17.44
2023-05-22T12:48:26.795Z,17.08
2023-05-22T12:49:28.728Z,16.90
2023-05-22T12:50:31.797Z,16.69
2023-05-22T12:51:35.089Z,16.80
2023-05-22T12:52:37.351Z,16.92
2023-05-22T12:53:39.299Z,17.42
2023-05-22T12:54:41.684Z,17.18
2023-05-22T12:55:43.848Z,17.52
2023-05-22T12:56:46.197Z,16.74
2023-05-22T12:57:48.246Z,16.53
2023-05-22T12:58:50.566Z,17.15
2023-05-22T12:59:52.533Z,17.10
2023-05-22T13:00:54.933Z,16.79
2023-05-22T13:02:02.351Z,17.20
2023-05-22T13:03:06.161Z,17.30
2023-05-22T13:04:08.058Z,17.20
2023-05-22T13:05:10.214Z,17.12
2023-05-22T13:06:12.650Z,16.84
2023-05-22T13:07:14.666Z,17.11
2023-05-22T13:08:16.905Z,17.16
2023-05-22T13:09:20.234Z,17.66
2023-05-22T13:10:22.473Z,17.55
2023-05-22T13:11:26.670Z,17.28
2023-05-22T13:12:28.818Z,17.51
2023-05-22T13:13:31.142Z,17.54
2023-05-22T13:14:33.486Z,17.23
2023-05-22T13:15:36.388Z,16.81
2023-05-22T13:16:38.484Z,17.41
2023-05-22T13:17:40.724Z,16.95
2023-05-22T13:18:42.865Z,17.63
2023-05-22T13:19:44.912Z,17.19
2023-05-22T13:20:47.213Z,17.08
2023-05-22T13:21:49.489Z,17.61
2023-05-22T13:22:51.623Z,17.17
2023-05-22T13:23:53.674Z,17.85
2023-05-22T13:24:56.009Z,17.22
2023-05-22T13:25:57.965Z,17.54
2023-05-22T13:27:00.009Z,17.36
2023-05-22T13:28:02.385Z,17.61
2023-05-22T13:29:04.738Z,17.29
2023-05-22T13:30:07.483Z,17.80
2023-05-22T13:31:09.672Z,17.95
2023-05-22T13:32:13.748Z,17.51
2023-05-22T13:33:16.103Z,17.96
2023-05-22T13:34:18.208Z,17.32
2023-05-22T13:35:20.896Z,17.71
2023-05-22T13:36:22.934Z,17.68
2023-05-22T13:37:25.408Z,17.81
2023-05-22T13:38:27.405Z,17.57
2023-05-22T13:39:29.557Z,17.85
2023-05-22T13:40:31.858Z,17.41
2023-05-22T13:41:34.025Z,17.79
2023-05-22T13:42:36.818Z,17.56
2023-05-22T13:43:39.009Z,17.79
2023-05-22T13:44:41.130Z,17.83
2023-05-22T13:45:43.450Z,17.88
2023-05-22T13:46:45.463Z,18.08
2023-05-22T13:47:47.753Z,17.90
2023-05-22T13:48:49.907Z,17.85
2023-05-22T13:49:52.571Z,18.21
2023-05-22T13:50:54.557Z,18.34
2023-05-22T13:51:56.700Z,18.22
2023-05-22T13:52:58.718Z,17.74
2023-05-22T13:54:00.950Z,17.55
2023-05-22T13:55:02.985Z,17.55